createdAt,value
2019-04-28T00:01:05.957Z,10.62
2019-04-28T00:03:34.026Z,10.63
2019-04-28T00:06:02.079Z,10.62
2019-04-28T00:08:31.888Z,10.62
2019-04-28T00:11:01.833Z,10.60
2019-04-28T00:13:31.970Z,10.58
2019-04-28T00:16:01.598Z,10.55
2019-04-28T00:18:31.713Z,10.55
2019-04-28T00:21:28.376Z,10.55
2019-04-28T00:24:15.689Z,10.56
2019-04-28T00:26:49.414Z,10.56
2019-04-28T00:29:17.542Z,10.55
2019-04-28T00:31:45.716Z,10.55
2019-04-28T00:34:14.362Z,10.56
2019-04-28T00:36:44.324Z,10.53
2019-04-28T00:39:12.752Z,10.53
2019-04-28T00:41:42.027Z,10.52
2019-04-28T00:44:11.909Z,10.54
2019-04-28T00:46:41.661Z,10.54
2019-04-28T00:49:11.751Z,10.51
2019-04-28T00:51:41.534Z,10.48
2019-04-28T00:54:11.498Z,10.47
2019-04-28T00:56:41.795Z,10.46
2019-04-28T00:59:11.791Z,10.44
2019-04-28T01:01:51.165Z,10.42
2019-04-28T01:04:19.304Z,10.39
2019-04-28T01:06:47.330Z,10.39
2019-04-28T01:09:15.520Z,10.36
2019-04-28T01:11:43.685Z,10.33
2019-04-28T01:14:11.775Z,10.31
2019-04-28T01:16:46.075Z,10.30
2019-04-28T01:19:20.249Z,10.27
2019-04-28T01:22:12.348Z,10.24
2019-04-28T01:24:40.840Z,10.22
2019-04-28T01:27:46.832Z,10.19
2019-04-28T01:30:40.252Z,10.16
2019-04-28T01:33:18.283Z,10.14
2019-04-28T01:35:46.520Z,10.09
2019-04-28T01:38:14.569Z,10.06
2019-04-28T01:40:42.580Z,10.05
2019-04-28T01:43:10.787Z,10.02
2019-04-28T01:45:39.898Z,10.00
2019-04-28T01:48:10.118Z,9.96
2019-04-28T01:50:39.896Z,9.95
2019-04-28T01:53:09.733Z,9.96
2019-04-28T01:55:39.344Z,9.96
2019-04-28T01:58:09.589Z,9.97
2019-04-28T02:00:38.248Z,9.97
2019-04-28T02:03:06.637Z,9.97
2019-04-28T02:05:34.675Z,9.97
2019-04-28T02:08:02.865Z,9.97
2019-04-28T02:10:31.237Z,9.95
2019-04-28T02:12:59.919Z,9.94
2019-04-28T02:15:30.183Z,9.91
2019-04-28T02:18:00.093Z,9.89
2019-04-28T02:20:30.122Z,9.85
2019-04-28T02:23:21.555Z,9.77
2019-04-28T02:25:49.881Z,9.70
2019-04-28T02:28:19.817Z,9.63
2019-04-28T02:30:53.162Z,9.58
2019-04-28T02:33:17.791Z,9.54
2019-04-28T02:35:47.102Z,9.53
2019-04-28T02:38:15.324Z,9.52
2019-04-28T02:40:43.323Z,9.52
2019-04-28T02:43:11.648Z,9.51
2019-04-28T02:45:41.236Z,9.51
2019-04-28T02:48:15.573Z,9.50
2019-04-28T02:51:07.591Z,9.47
2019-04-28T02:53:40.847Z,9.49
2019-04-28T02:56:11.245Z,9.48
2019-04-28T02:58:41.533Z,9.49
2019-04-28T03:01:18.555Z,9.49
2019-04-28T03:03:40.829Z,9.49
2019-04-28T03:06:10.801Z,9.48
2019-04-28T03:08:40.513Z,9.48
2019-04-28T03:11:10.686Z,9.46
2019-04-28T03:13:41.108Z,9.43
2019-04-28T03:16:10.813Z,9.41
2019-04-28T03:18:41.063Z,9.39
2019-04-28T03:21:11.219Z,9.36
2019-04-28T03:23:40.524Z,9.38
2019-04-28T03:26:34.331Z,9.38
2019-04-28T03:29:10.820Z,9.38
2019-04-28T03:32:13.851Z,9.38
2019-04-28T03:34:15.035Z,9.38
2019-04-28T03:36:43.040Z,9.34
2019-04-28T03:39:11.275Z,9.32
2019-04-28T03:41:40.582Z,9.30
2019-04-28T03:44:11.274Z,9.30
2019-04-28T03:46:45.001Z,9.30
2019-04-28T03:49:31.052Z,9.30
2019-04-28T03:52:01.079Z,9.29
2019-04-28T03:54:30.357Z,9.28
2019-04-28T03:57:01.124Z,9.29
2019-04-28T03:59:31.145Z,9.29
2019-04-28T04:02:02.830Z,9.29
2019-04-28T04:04:32.241Z,9.29
2019-04-28T04:07:01.511Z,9.29
2019-04-28T04:09:41.392Z,9.32
2019-04-28T04:12:30.750Z,9.33
2019-04-28T04:15:06.458Z,9.37
2019-04-28T04:18:01.287Z,9.40
2019-04-28T04:20:31.062Z,9.43
2019-04-28T04:23:01.435Z,9.46
2019-04-28T04:25:31.381Z,9.45
2019-04-28T04:28:02.985Z,9.46
2019-04-28T04:30:31.267Z,9.47
2019-04-28T04:33:01.330Z,9.47
2019-04-28T04:35:31.546Z,9.47
2019-04-28T04:38:00.443Z,9.46
2019-04-28T04:40:41.314Z,9.48
2019-04-28T04:43:26.559Z,9.50
2019-04-28T04:46:17.861Z,9.52
2019-04-28T04:48:45.931Z,9.52
2019-04-28T04:51:13.938Z,9.52
2019-04-28T04:53:42.019Z,9.54
2019-04-28T04:56:10.602Z,9.54
2019-04-28T04:58:40.761Z,9.57
2019-04-28T05:01:15.816Z,9.60
2019-04-28T05:03:47.099Z,9.61
2019-04-28T05:06:32.977Z,9.64
2019-04-28T05:09:01.153Z,9.66
2019-04-28T05:11:31.099Z,9.68
2019-04-28T05:13:59.695Z,9.70
2019-04-28T05:16:29.794Z,9.73
2019-04-28T05:18:59.916Z,9.77
2019-04-28T05:21:31.145Z,9.80
2019-04-28T05:24:17.334Z,9.84
2019-04-28T05:26:47.768Z,9.88
2019-04-28T05:29:21.818Z,9.93
2019-04-28T05:31:46.312Z,9.92
2019-04-28T05:34:14.410Z,9.93
2019-04-28T05:36:44.692Z,9.96
2019-04-28T05:39:12.901Z,9.94
2019-04-28T05:41:40.994Z,9.96
2019-04-28T05:44:10.054Z,9.94
2019-04-28T05:46:40.054Z,9.95
2019-04-28T05:49:30.387Z,9.95
2019-04-28T05:52:03.573Z,10.00
2019-04-28T05:54:49.552Z,10.04
2019-04-28T05:57:33.052Z,10.10
2019-04-28T06:00:13.685Z,10.16
2019-04-28T06:02:54.170Z,10.19
2019-04-28T06:05:14.455Z,10.21
2019-04-28T06:07:56.601Z,10.25
2019-04-28T06:10:25.249Z,10.30
2019-04-28T06:12:54.950Z,10.36
2019-04-28T06:15:23.033Z,10.40
2019-04-28T06:17:51.061Z,10.39
2019-04-28T06:20:20.094Z,10.31
2019-04-28T06:22:48.267Z,10.14
2019-04-28T06:25:16.331Z,9.99
2019-04-28T06:27:44.786Z,9.96
2019-04-28T06:30:13.487Z,9.94
2019-04-28T06:32:41.537Z,9.95
2019-04-28T06:35:10.007Z,9.92
2019-04-28T06:37:38.084Z,9.92
2019-04-28T06:40:06.362Z,9.95
2019-04-28T06:42:34.469Z,10.00
2019-04-28T06:45:02.549Z,10.04
2019-04-28T06:47:31.020Z,10.05
2019-04-28T06:49:58.996Z,10.06
2019-04-28T06:52:27.085Z,10.04
2019-04-28T06:54:55.367Z,10.05
2019-04-28T06:57:23.433Z,10.10
2019-04-28T06:59:51.743Z,10.08
2019-04-28T07:02:19.824Z,10.11
2019-04-28T07:04:47.871Z,10.18
2019-04-28T07:07:16.206Z,10.24
2019-04-28T07:09:44.251Z,10.34
2019-04-28T07:12:12.309Z,10.52
2019-04-28T07:14:40.348Z,10.74
2019-04-28T07:17:08.414Z,10.94
2019-04-28T07:19:36.448Z,11.08
2019-04-28T07:22:29.974Z,11.17
2019-04-28T07:24:58.006Z,11.22
2019-04-28T07:27:26.319Z,11.34
2019-04-28T07:29:54.325Z,11.43
2019-04-28T07:32:22.509Z,11.51
2019-04-28T07:34:50.554Z,11.54
2019-04-28T07:37:18.672Z,11.60
2019-04-28T07:39:47.690Z,11.65
2019-04-28T07:42:15.770Z,11.73
2019-04-28T07:44:43.795Z,11.75
2019-04-28T07:47:12.136Z,11.77
2019-04-28T07:49:40.504Z,11.82
2019-04-28T07:52:35.944Z,11.84
2019-04-28T07:55:04.753Z,11.85
2019-04-28T07:57:33.086Z,11.83
2019-04-28T08:00:01.139Z,11.88
2019-04-28T08:02:29.770Z,11.92
2019-04-28T08:04:58.514Z,11.89
2019-04-28T08:07:26.574Z,11.87
2019-04-28T08:09:54.568Z,11.90
2019-04-28T08:12:22.929Z,11.89
2019-04-28T08:14:50.978Z,11.86
2019-04-28T08:17:19.019Z,11.86
2019-04-28T08:19:47.157Z,11.86
2019-04-28T08:22:15.389Z,11.92
2019-04-28T08:24:43.401Z,12.00
2019-04-28T08:27:11.461Z,12.13
2019-04-28T08:29:40.462Z,12.25
2019-04-28T08:32:16.621Z,12.37
2019-04-28T08:34:44.664Z,12.54
2019-04-28T08:37:12.717Z,12.69
2019-04-28T08:39:40.721Z,12.86
2019-04-28T08:42:08.796Z,13.09
2019-04-28T08:44:36.813Z,13.20
2019-04-28T08:47:04.863Z,13.36
2019-04-28T08:49:34.036Z,13.53
2019-04-28T08:52:03.134Z,13.66
2019-04-28T08:54:32.205Z,13.75
2019-04-28T08:57:00.755Z,13.86
2019-04-28T08:59:28.761Z,14.01
2019-04-28T09:01:56.818Z,14.06
2019-04-28T09:04:24.878Z,14.06
2019-04-28T09:06:53.288Z,14.21
2019-04-28T09:09:21.871Z,14.31
2019-04-28T09:11:49.890Z,14.40
2019-04-28T09:14:17.934Z,14.54
2019-04-28T09:16:45.940Z,14.75
2019-04-28T09:19:13.994Z,14.98
2019-04-28T09:21:42.016Z,15.17
2019-04-28T09:24:10.061Z,15.35
2019-04-28T09:26:38.069Z,15.60
2019-04-28T09:29:06.116Z,15.79
2019-04-28T09:31:34.147Z,16.01
2019-04-28T09:34:02.188Z,16.13
2019-04-28T09:36:30.408Z,16.27
2019-04-28T09:38:59.409Z,16.49
2019-04-28T09:41:27.411Z,16.67
2019-04-28T09:44:07.254Z,16.79
2019-04-28T09:46:37.710Z,16.84
2019-04-28T09:49:05.992Z,16.84
2019-04-28T09:51:34.010Z,16.77
2019-04-28T09:54:02.085Z,16.85
2019-04-28T09:56:30.216Z,16.86
2019-04-28T09:58:59.559Z,16.58
2019-04-28T10:01:28.278Z,16.38
2019-04-28T10:03:56.753Z,16.31
2019-04-28T10:06:24.767Z,16.03
2019-04-28T10:08:52.846Z,15.91
2019-04-28T10:11:30.232Z,15.88
2019-04-28T10:13:51.095Z,15.81
2019-04-28T10:16:20.506Z,15.77
2019-04-28T10:18:48.569Z,15.71
2019-04-28T10:21:17.739Z,15.66
2019-04-28T10:23:46.820Z,15.74
2019-04-28T10:26:14.863Z,15.92
2019-04-28T10:28:42.939Z,16.03
2019-04-28T10:31:13.336Z,16.20
2019-04-28T10:33:42.869Z,16.38
2019-04-28T10:36:11.866Z,16.65
2019-04-28T10:38:41.817Z,16.81
2019-04-28T10:41:19.604Z,17.03
2019-04-28T10:43:47.786Z,17.23
2019-04-28T10:46:16.921Z,17.48
2019-04-28T10:48:45.408Z,17.66
2019-04-28T10:51:14.594Z,17.68
2019-04-28T10:53:42.670Z,17.83
2019-04-28T10:56:10.678Z,17.98
2019-04-28T10:58:41.737Z,18.11
2019-04-28T11:01:09.774Z,18.20
2019-04-28T11:03:37.920Z,18.21
2019-04-28T11:06:06.265Z,18.10
2019-04-28T11:08:48.166Z,18.08
2019-04-28T11:11:20.137Z,18.02
2019-04-28T11:13:48.304Z,17.90
2019-04-28T11:16:18.898Z,17.70
2019-04-28T11:18:46.916Z,17.54
2019-04-28T11:21:15.297Z,17.41
2019-04-28T11:23:44.315Z,17.29
2019-04-28T11:26:12.470Z,17.06
2019-04-28T11:28:40.804Z,16.82
2019-04-28T11:31:08.830Z,16.60
2019-04-28T11:33:56.296Z,16.49
2019-04-28T11:36:24.382Z,16.43
2019-04-28T11:38:52.526Z,16.37
2019-04-28T11:41:20.680Z,16.31
2019-04-28T11:43:48.735Z,16.21
2019-04-28T11:46:19.061Z,16.14
2019-04-28T11:48:47.090Z,16.11
2019-04-28T11:51:15.267Z,16.13
2019-04-28T11:53:43.389Z,16.18
2019-04-28T11:56:11.755Z,16.27
2019-04-28T11:58:39.872Z,16.42
2019-04-28T12:01:08.440Z,16.62
2019-04-28T12:03:36.613Z,16.79
2019-04-28T12:06:04.871Z,17.01
2019-04-28T12:08:33.460Z,17.25
2019-04-28T12:11:26.636Z,17.49
2019-04-28T12:14:23.479Z,17.78
2019-04-28T12:17:11.201Z,18.04
2019-04-28T12:19:43.541Z,18.25
2019-04-28T12:22:11.779Z,18.44
2019-04-28T12:24:39.923Z,18.66
2019-04-28T12:27:07.978Z,18.83
2019-04-28T12:29:35.994Z,18.99
2019-04-28T12:32:04.084Z,19.15
2019-04-28T12:34:33.160Z,19.18
2019-04-28T12:37:01.220Z,19.06
2019-04-28T12:39:29.619Z,18.87
2019-04-28T12:41:57.669Z,18.93
2019-04-28T12:44:25.698Z,19.02
2019-04-28T12:46:53.794Z,18.94
2019-04-28T12:49:32.891Z,18.89
2019-04-28T12:52:01.079Z,18.70
2019-04-28T12:54:31.182Z,18.56
2019-04-28T12:56:59.265Z,18.46
2019-04-28T12:59:33.478Z,18.53
2019-04-28T13:02:14.576Z,18.63
2019-04-28T13:04:54.336Z,18.67
2019-04-28T13:07:22.404Z,18.80
2019-04-28T13:09:50.423Z,18.99
2019-04-28T13:12:18.499Z,19.17
2019-04-28T13:14:46.529Z,19.38
2019-04-28T13:17:14.607Z,19.63
2019-04-28T13:19:42.635Z,19.94
2019-04-28T13:22:10.691Z,20.21
2019-04-28T13:24:38.721Z,20.43
2019-04-28T13:27:06.884Z,20.58
2019-04-28T13:29:34.908Z,20.78
2019-04-28T13:32:02.987Z,20.85
2019-04-28T13:34:40.598Z,20.95
2019-04-28T13:37:09.152Z,21.13
2019-04-28T13:39:49.721Z,21.30
2019-04-28T13:42:17.823Z,21.42
2019-04-28T13:44:53.178Z,21.43
2019-04-28T13:47:22.828Z,21.36
2019-04-28T13:50:12.257Z,21.31
2019-04-28T13:52:44.679Z,21.36
2019-04-28T13:55:28.118Z,21.42
2019-04-28T13:57:58.825Z,21.41
2019-04-28T14:00:36.916Z,21.37
2019-04-28T14:03:33.735Z,21.27
2019-04-28T14:06:05.724Z,21.20
2019-04-28T14:08:34.808Z,21.04
2019-04-28T14:11:03.031Z,20.99
2019-04-28T14:13:31.139Z,20.96
2019-04-28T14:15:59.175Z,20.81
2019-04-28T14:18:27.295Z,20.60
2019-04-28T14:20:55.466Z,20.26
2019-04-28T14:23:23.679Z,20.22
2019-04-28T14:26:01.067Z,20.20
2019-04-28T14:28:29.098Z,20.27
2019-04-28T14:30:57.140Z,20.36
2019-04-28T14:33:25.293Z,20.48
2019-04-28T14:35:53.342Z,20.57
2019-04-28T14:38:21.519Z,20.60
2019-04-28T14:40:49.944Z,20.55
2019-04-28T14:43:18.077Z,20.50
2019-04-28T14:45:46.281Z,20.47
2019-04-28T14:48:14.541Z,20.44
2019-04-28T14:50:42.541Z,20.28
2019-04-28T14:53:10.836Z,20.21
2019-04-28T14:55:39.033Z,20.07
2019-04-28T14:58:17.325Z,19.99
2019-04-28T15:00:50.420Z,19.89
2019-04-28T15:03:18.635Z,19.76
2019-04-28T15:05:59.291Z,19.61
2019-04-28T15:08:40.823Z,19.32
2019-04-28T15:11:31.065Z,19.18
2019-04-28T15:13:59.214Z,19.03
2019-04-28T15:16:27.241Z,18.78
2019-04-28T15:18:55.307Z,18.63
2019-04-28T15:21:23.651Z,18.44
2019-04-28T15:23:51.705Z,18.28
2019-04-28T15:26:19.704Z,18.10
2019-04-28T15:28:47.808Z,17.91
2019-04-28T15:31:16.145Z,17.78
2019-04-28T15:33:44.493Z,17.65
2019-04-28T15:36:12.516Z,17.49
2019-04-28T15:38:40.589Z,17.39
2019-04-28T15:41:20.916Z,17.30
2019-04-28T15:43:39.072Z,17.15
2019-04-28T15:46:07.197Z,17.01
2019-04-28T15:48:35.986Z,16.78
2019-04-28T15:51:04.050Z,16.65
2019-04-28T15:53:34.453Z,16.62
2019-04-28T15:56:21.803Z,16.50
2019-04-28T15:58:49.873Z,16.36
2019-04-28T16:01:17.900Z,16.28
2019-04-28T16:03:46.226Z,16.06
2019-04-28T16:06:14.249Z,15.91
2019-04-28T16:08:42.316Z,15.90
2019-04-28T16:11:10.385Z,15.81
2019-04-28T16:13:38.466Z,15.61
2019-04-28T16:16:06.537Z,15.50
2019-04-28T16:18:35.746Z,15.44
2019-04-28T16:21:03.883Z,15.43
2019-04-28T16:23:32.025Z,15.37
2019-04-28T16:26:00.064Z,15.26
2019-04-28T16:28:28.349Z,15.09
2019-04-28T16:30:56.346Z,14.99
2019-04-28T16:33:24.430Z,14.91
2019-04-28T16:35:52.573Z,14.85
2019-04-28T16:38:20.838Z,14.83
2019-04-28T16:40:48.895Z,14.84
2019-04-28T16:43:18.172Z,14.81
2019-04-28T16:45:46.394Z,14.77
2019-04-28T16:48:14.471Z,14.70
2019-04-28T16:50:42.553Z,14.66
2019-04-28T16:53:10.592Z,14.66
2019-04-28T16:55:57.687Z,14.65
2019-04-28T16:58:48.461Z,14.59
2019-04-28T17:01:33.610Z,14.47
2019-04-28T17:04:01.659Z,14.38
2019-04-28T17:06:29.839Z,14.33
2019-04-28T17:08:58.246Z,14.32
2019-04-28T17:11:26.318Z,14.35
2019-04-28T17:13:54.980Z,14.38
2019-04-28T17:16:23.332Z,14.39
2019-04-28T17:18:53.239Z,14.39
2019-04-28T17:21:21.264Z,14.39
2019-04-28T17:23:49.452Z,14.38
2019-04-28T17:26:17.529Z,14.38
2019-04-28T17:28:45.609Z,14.37
2019-04-28T17:31:14.780Z,14.37
2019-04-28T17:33:42.837Z,14.37
2019-04-28T17:36:10.882Z,14.34
2019-04-28T17:38:38.900Z,14.34
2019-04-28T17:41:07.271Z,14.33
2019-04-28T17:43:36.714Z,14.31
2019-04-28T17:46:05.044Z,14.30
2019-04-28T17:48:36.252Z,14.28
2019-04-28T17:51:05.085Z,14.27
2019-04-28T17:53:33.363Z,14.27
2019-04-28T17:56:01.400Z,14.25
2019-04-28T17:58:29.572Z,14.21
2019-04-28T18:01:15.038Z,14.20
2019-04-28T18:03:52.667Z,14.17
2019-04-28T18:06:21.482Z,14.14
2019-04-28T18:08:49.565Z,14.13
2019-04-28T18:11:18.615Z,14.10
2019-04-28T18:13:46.700Z,14.08
2019-04-28T18:16:37.033Z,14.07
2019-04-28T18:19:14.050Z,14.05
2019-04-28T18:21:43.267Z,14.02
2019-04-28T18:24:11.486Z,13.98
2019-04-28T18:26:39.587Z,13.96
2019-04-28T18:29:07.900Z,13.91
2019-04-28T18:31:54.227Z,13.86
2019-04-28T18:34:37.674Z,13.80
2019-04-28T18:37:36.337Z,13.74
2019-04-28T18:40:19.645Z,13.69
2019-04-28T18:42:54.551Z,13.63
2019-04-28T18:45:31.601Z,13.59
2019-04-28T18:48:06.521Z,13.55
2019-04-28T18:50:36.319Z,13.50
2019-04-28T18:53:04.953Z,13.45
2019-04-28T18:55:33.615Z,13.40
2019-04-28T18:58:03.569Z,13.34
2019-04-28T19:00:35.905Z,13.29
2019-04-28T19:03:04.290Z,13.23
2019-04-28T19:05:35.062Z,13.18
2019-04-28T19:08:17.687Z,13.12
2019-04-28T19:11:04.147Z,13.06
2019-04-28T19:13:35.432Z,12.99
2019-04-28T19:16:39.956Z,12.89
2019-04-28T19:19:09.389Z,12.82
2019-04-28T19:21:37.442Z,12.72
2019-04-28T19:24:05.854Z,12.65
2019-04-28T19:26:58.048Z,12.57
2019-04-28T19:29:26.322Z,12.51
2019-04-28T19:31:54.426Z,12.45
2019-04-28T19:34:22.559Z,12.38
2019-04-28T19:36:58.542Z,12.25
2019-04-28T19:39:26.775Z,12.17
2019-04-28T19:41:54.961Z,12.08
2019-04-28T19:44:23.877Z,11.98
2019-04-28T19:47:01.841Z,11.89
2019-04-28T19:49:30.236Z,11.79
2019-04-28T19:51:58.380Z,11.73
2019-04-28T19:54:30.593Z,11.69
2019-04-28T19:57:08.032Z,11.66
2019-04-28T20:00:02.328Z,11.60
2019-04-28T20:02:39.600Z,11.52
2019-04-28T20:05:07.840Z,11.45
2019-04-28T20:07:36.187Z,11.39
2019-04-28T20:10:05.231Z,11.33
2019-04-28T20:12:33.250Z,11.27
2019-04-28T20:15:01.550Z,11.20
2019-04-28T20:17:29.879Z,11.15
2019-04-28T20:19:58.276Z,11.08
2019-04-28T20:22:26.455Z,11.01
2019-04-28T20:24:56.105Z,10.98
2019-04-28T20:27:24.310Z,10.92
2019-04-28T20:29:52.487Z,10.90
2019-04-28T20:32:20.625Z,10.88
2019-04-28T20:34:48.787Z,10.85
2019-04-28T20:37:24.635Z,10.83
2019-04-28T20:39:58.580Z,10.79
2019-04-28T20:42:45.770Z,10.78
2019-04-28T20:45:15.260Z,10.73
2019-04-28T20:47:43.304Z,10.66
2019-04-28T20:50:11.583Z,10.61
2019-04-28T20:52:39.756Z,10.60
2019-04-28T20:55:08.044Z,10.56
2019-04-28T20:57:37.169Z,10.54
2019-04-28T21:00:06.972Z,10.50
2019-04-28T21:02:38.096Z,10.45
2019-04-28T21:05:06.385Z,10.39
2019-04-28T21:07:34.527Z,10.39
2019-04-28T21:10:02.981Z,10.36
2019-04-28T21:12:32.353Z,10.30
2019-04-28T21:15:00.395Z,10.24
2019-04-28T21:17:28.431Z,10.22
2019-04-28T21:19:56.801Z,10.20
2019-04-28T21:22:25.375Z,10.18
2019-04-28T21:24:53.433Z,10.17
2019-04-28T21:27:21.556Z,10.12
2019-04-28T21:29:49.911Z,10.08
2019-04-28T21:32:18.058Z,10.04
2019-04-28T21:34:46.511Z,10.02
2019-04-28T21:37:14.589Z,9.98
2019-04-28T21:39:42.878Z,9.98
2019-04-28T21:42:14.977Z,9.96
2019-04-28T21:45:12.957Z,9.95
2019-04-28T21:47:41.104Z,9.92
2019-04-28T21:50:10.406Z,9.89
2019-04-28T21:52:39.216Z,9.87
2019-04-28T21:55:07.332Z,9.83
2019-04-28T21:57:35.451Z,9.81
2019-04-28T22:00:07.764Z,9.80
2019-04-28T22:02:36.041Z,9.77
2019-04-28T22:05:04.843Z,9.74
2019-04-28T22:07:32.924Z,9.72
2019-04-28T22:10:01.077Z,9.71
2019-04-28T22:12:29.242Z,9.68
2019-04-28T22:14:57.580Z,9.68
2019-04-28T22:17:25.784Z,9.63
2019-04-28T22:19:53.821Z,9.60
2019-04-28T22:22:21.923Z,9.57
2019-04-28T22:25:02.373Z,9.53
2019-04-28T22:27:33.989Z,9.51
2019-04-28T22:30:02.115Z,9.49
2019-04-28T22:32:32.105Z,9.45
2019-04-28T22:35:01.575Z,9.44
2019-04-28T22:37:30.055Z,9.40
2019-04-28T22:39:58.437Z,9.39
2019-04-28T22:42:26.509Z,9.39
2019-04-28T22:44:55.649Z,9.38
2019-04-28T22:47:23.695Z,9.38
2019-04-28T22:49:51.749Z,9.38
2019-04-28T22:52:19.851Z,9.39
2019-04-28T22:55:07.479Z,9.39
2019-04-28T22:58:01.118Z,9.37
2019-04-28T23:00:47.983Z,9.37
2019-04-28T23:03:36.883Z,9.35
2019-04-28T23:06:04.897Z,9.30
2019-04-28T23:08:32.990Z,9.25
2019-04-28T23:11:00.999Z,9.22
2019-04-28T23:13:29.076Z,9.19
2019-04-28T23:15:57.087Z,9.18
2019-04-28T23:18:25.564Z,9.16
2019-04-28T23:20:57.124Z,9.17
2019-04-28T23:23:25.285Z,9.19
2019-04-28T23:25:53.338Z,9.18
2019-04-28T23:28:21.478Z,9.18
2019-04-28T23:30:51.358Z,9.16
2019-04-28T23:33:20.035Z,9.17
2019-04-28T23:35:48.443Z,9.16
2019-04-28T23:38:16.509Z,9.16
2019-04-28T23:40:58.502Z,9.16
2019-04-28T23:43:26.697Z,9.17
2019-04-28T23:45:55.120Z,9.16
2019-04-28T23:48:23.486Z,9.15
2019-04-28T23:51:04.311Z,9.15
2019-04-28T23:54:04.369Z,9.14
2019-04-28T23:56:32.593Z,9.17
2019-04-28T23:59:00.933Z,9.17
